createdAt,value
2019-03-23T00:01:52.878Z,9.14
2019-03-23T00:04:25.365Z,9.15
2019-03-23T00:06:55.652Z,9.04
2019-03-23T00:09:26.096Z,9.18
2019-03-23T00:11:56.669Z,9.22
2019-03-23T00:14:27.111Z,9.11
2019-03-23T00:16:57.547Z,9.03
2019-03-23T00:19:28.082Z,9.06
2019-03-23T00:21:58.568Z,9.03
2019-03-23T00:24:29.019Z,9.12
2019-03-23T00:26:59.506Z,9.00
2019-03-23T00:29:29.946Z,8.98
2019-03-23T00:32:00.392Z,8.91
2019-03-23T00:34:31.387Z,8.81
2019-03-23T00:37:01.926Z,8.74
2019-03-23T00:39:33.410Z,8.73
2019-03-23T00:42:03.873Z,8.79
2019-03-23T00:44:34.321Z,8.84
2019-03-23T00:47:04.873Z,8.80
2019-03-23T00:49:35.336Z,8.81
2019-03-23T00:52:05.864Z,8.78
2019-03-23T00:54:36.237Z,8.70
2019-03-23T00:57:06.793Z,8.72
2019-03-23T00:59:37.450Z,8.73
2019-03-23T01:02:07.970Z,8.71
2019-03-23T01:04:39.490Z,8.73
2019-03-23T01:07:10.017Z,8.68
2019-03-23T01:09:40.546Z,8.70
2019-03-23T01:12:11.013Z,8.75
2019-03-23T01:14:41.580Z,8.77
2019-03-23T01:17:12.095Z,8.84
2019-03-23T01:19:42.586Z,8.80
2019-03-23T01:22:13.056Z,8.82
2019-03-23T01:24:43.593Z,8.80
2019-03-23T01:27:14.050Z,8.83
2019-03-23T01:29:44.503Z,8.98
2019-03-23T01:32:15.096Z,8.92
2019-03-23T01:34:45.990Z,8.85
2019-03-23T01:37:16.504Z,8.73
2019-03-23T01:39:46.986Z,8.73
2019-03-23T01:42:17.523Z,8.80
2019-03-23T01:44:47.986Z,8.80
2019-03-23T01:47:18.651Z,8.91
2019-03-23T01:49:49.206Z,8.83
2019-03-23T01:52:19.824Z,8.89
2019-03-23T01:54:50.360Z,8.94
2019-03-23T01:57:20.830Z,9.02
2019-03-23T01:59:52.000Z,8.95
2019-03-23T02:02:22.484Z,8.89
2019-03-23T02:04:54.006Z,8.72
2019-03-23T02:07:24.482Z,8.71
2019-03-23T02:09:54.911Z,8.71
2019-03-23T02:12:25.362Z,8.88
2019-03-23T02:14:56.805Z,8.93
2019-03-23T02:17:27.335Z,8.96
2019-03-23T02:19:57.776Z,9.05
2019-03-23T02:22:28.219Z,9.07
2019-03-23T02:24:58.677Z,9.10
2019-03-23T02:27:29.145Z,9.23
2019-03-23T02:29:59.627Z,9.14
2019-03-23T02:32:30.329Z,9.17
2019-03-23T02:35:01.146Z,9.11
2019-03-23T02:37:31.520Z,9.09
2019-03-23T02:40:02.000Z,8.91
2019-03-23T02:42:32.541Z,8.92
2019-03-23T02:45:03.163Z,8.92
2019-03-23T02:47:33.599Z,8.99
2019-03-23T02:50:04.462Z,8.85
2019-03-23T02:52:34.983Z,8.74
2019-03-23T02:55:06.635Z,8.66
2019-03-23T02:57:37.233Z,8.65
2019-03-23T03:00:08.622Z,8.68
2019-03-23T03:02:39.315Z,8.68
2019-03-23T03:05:10.702Z,8.68
2019-03-23T03:07:43.257Z,8.67
2019-03-23T03:10:16.373Z,8.59
2019-03-23T03:12:46.927Z,8.43
2019-03-23T03:15:17.561Z,8.38
2019-03-23T03:17:48.058Z,8.27
2019-03-23T03:20:18.441Z,8.18
2019-03-23T03:22:49.096Z,8.13
2019-03-23T03:25:19.566Z,8.06
2019-03-23T03:27:50.117Z,8.04
2019-03-23T03:30:20.639Z,8.15
2019-03-23T03:32:51.251Z,8.16
2019-03-23T03:35:21.912Z,8.21
2019-03-23T03:37:56.780Z,8.11
2019-03-23T03:40:24.757Z,8.21
2019-03-23T03:42:55.284Z,8.15
2019-03-23T03:45:26.716Z,8.17
2019-03-23T03:47:57.493Z,8.28
2019-03-23T03:50:27.880Z,8.16
2019-03-23T03:52:58.341Z,8.13
2019-03-23T03:55:28.738Z,8.01
2019-03-23T03:57:59.103Z,8.02
2019-03-23T04:00:29.665Z,8.15
2019-03-23T04:03:00.103Z,7.99
2019-03-23T04:05:30.599Z,8.13
2019-03-23T04:08:11.119Z,8.19
2019-03-23T04:10:34.340Z,8.19
2019-03-23T04:13:04.934Z,8.26
2019-03-23T04:15:35.355Z,8.13
2019-03-23T04:18:05.878Z,8.18
2019-03-23T04:20:36.338Z,8.13
2019-03-23T04:23:06.857Z,8.32
2019-03-23T04:25:37.745Z,8.08
2019-03-23T04:28:08.213Z,8.06
2019-03-23T04:30:38.655Z,7.98
2019-03-23T04:33:09.181Z,8.06
2019-03-23T04:35:39.753Z,8.24
2019-03-23T04:38:21.982Z,8.12
2019-03-23T04:40:42.486Z,8.14
2019-03-23T04:43:12.906Z,8.28
2019-03-23T04:45:43.369Z,8.31
2019-03-23T04:48:13.986Z,8.49
2019-03-23T04:50:44.453Z,8.47
2019-03-23T04:53:14.988Z,8.47
2019-03-23T04:55:45.571Z,8.48
2019-03-23T04:58:16.049Z,8.27
2019-03-23T05:00:46.623Z,8.16
2019-03-23T05:03:17.071Z,8.26
2019-03-23T05:05:47.582Z,8.24
2019-03-23T05:08:18.238Z,8.14
2019-03-23T05:10:48.953Z,8.23
2019-03-23T05:13:20.372Z,8.19
2019-03-23T05:15:50.843Z,8.25
2019-03-23T05:18:21.290Z,8.23
2019-03-23T05:20:51.775Z,8.33
2019-03-23T05:23:22.277Z,8.27
2019-03-23T05:25:52.840Z,8.05
2019-03-23T05:28:23.349Z,8.07
2019-03-23T05:30:53.915Z,8.03
2019-03-23T05:33:24.392Z,8.05
2019-03-23T05:35:54.966Z,8.07
2019-03-23T05:38:25.534Z,8.21
2019-03-23T05:40:55.969Z,8.15
2019-03-23T05:43:26.430Z,8.17
2019-03-23T05:45:56.900Z,8.17
2019-03-23T05:48:27.484Z,8.41
2019-03-23T05:50:58.026Z,8.47
2019-03-23T05:53:28.518Z,8.40
2019-03-23T05:55:58.953Z,8.33
2019-03-23T05:58:29.458Z,8.33
2019-03-23T06:01:00.020Z,8.38
2019-03-23T06:03:30.541Z,8.41
2019-03-23T06:06:01.286Z,8.58
2019-03-23T06:08:34.176Z,8.69
2019-03-23T06:11:04.728Z,8.75
2019-03-23T06:13:35.343Z,8.91
2019-03-23T06:16:05.967Z,8.95
2019-03-23T06:18:36.503Z,9.00
2019-03-23T06:21:07.066Z,9.04
2019-03-23T06:23:37.503Z,9.16
2019-03-23T06:26:08.072Z,9.26
2019-03-23T06:28:38.580Z,9.17
2019-03-23T06:31:09.089Z,9.31
2019-03-23T06:33:39.587Z,9.37
2019-03-23T06:36:10.128Z,9.51
2019-03-23T06:38:40.560Z,9.77
2019-03-23T06:41:11.067Z,9.92
2019-03-23T06:43:41.627Z,10.07
2019-03-23T06:46:12.019Z,10.15
2019-03-23T06:48:42.543Z,9.97
2019-03-23T06:51:13.134Z,10.02
2019-03-23T06:53:43.670Z,10.23
2019-03-23T06:56:14.161Z,10.36
2019-03-23T06:58:45.652Z,10.56
2019-03-23T07:01:16.133Z,10.86
2019-03-23T07:03:46.522Z,10.97
2019-03-23T07:06:17.041Z,11.32
2019-03-23T07:08:48.026Z,11.47
2019-03-23T07:11:18.514Z,11.69
2019-03-23T07:13:49.045Z,11.83
2019-03-23T07:16:19.493Z,11.83
2019-03-23T07:18:50.041Z,12.03
2019-03-23T07:21:20.794Z,12.03
2019-03-23T07:23:51.359Z,12.14
2019-03-23T07:26:21.935Z,12.31
2019-03-23T07:28:52.479Z,12.44
2019-03-23T07:31:22.971Z,12.58
2019-03-23T07:33:53.415Z,12.60
2019-03-23T07:36:23.776Z,12.69
2019-03-23T07:38:54.370Z,12.79
2019-03-23T07:41:24.902Z,12.68
2019-03-23T07:43:55.395Z,13.09
2019-03-23T07:46:25.857Z,13.09
2019-03-23T07:48:56.339Z,13.02
2019-03-23T07:51:26.784Z,13.09
2019-03-23T07:53:57.345Z,13.22
2019-03-23T07:56:27.797Z,13.48
2019-03-23T07:58:58.361Z,13.51
2019-03-23T08:01:28.889Z,13.71
2019-03-23T08:03:59.355Z,13.63
2019-03-23T08:06:29.837Z,13.75
2019-03-23T08:09:00.547Z,13.94
2019-03-23T08:11:32.751Z,13.99
2019-03-23T08:14:03.326Z,14.05
2019-03-23T08:16:33.841Z,14.20
2019-03-23T08:19:04.375Z,14.30
2019-03-23T08:21:34.944Z,13.76
2019-03-23T08:24:05.466Z,13.85
2019-03-23T08:26:36.024Z,13.88
2019-03-23T08:29:06.567Z,13.99
2019-03-23T08:31:37.124Z,14.64
2019-03-23T08:34:07.689Z,14.96
2019-03-23T08:36:38.265Z,14.66
2019-03-23T08:39:09.325Z,15.01
2019-03-23T08:41:39.788Z,14.75
2019-03-23T08:44:10.418Z,14.38
2019-03-23T08:46:40.811Z,14.75
2019-03-23T08:49:11.303Z,14.54
2019-03-23T08:51:41.770Z,15.28
2019-03-23T08:54:12.385Z,15.54
2019-03-23T08:56:42.925Z,15.26
2019-03-23T08:59:13.486Z,15.67
2019-03-23T09:01:43.955Z,15.95
2019-03-23T09:04:15.572Z,15.94
2019-03-23T09:06:46.044Z,15.48
2019-03-23T09:09:16.695Z,14.72
2019-03-23T09:11:47.163Z,14.85
2019-03-23T09:14:17.658Z,15.17
2019-03-23T09:16:48.039Z,15.29
2019-03-23T09:19:18.639Z,15.78
2019-03-23T09:21:49.044Z,15.60
2019-03-23T09:24:19.878Z,15.93
2019-03-23T09:26:50.541Z,16.22
2019-03-23T09:29:20.976Z,15.74
2019-03-23T09:31:51.514Z,15.72
2019-03-23T09:34:22.018Z,16.32
2019-03-23T09:36:52.494Z,16.60
2019-03-23T09:39:23.021Z,16.72
2019-03-23T09:41:53.523Z,16.87
2019-03-23T09:44:24.077Z,16.78
2019-03-23T09:46:54.541Z,16.90
2019-03-23T09:49:25.024Z,16.94
2019-03-23T09:51:55.492Z,16.56
2019-03-23T09:54:26.067Z,16.20
2019-03-23T09:56:56.574Z,16.64
2019-03-23T09:59:27.034Z,16.79
2019-03-23T10:01:57.515Z,16.66
2019-03-23T10:04:28.124Z,16.82
2019-03-23T10:06:58.970Z,17.02
2019-03-23T10:09:29.554Z,17.21
2019-03-23T10:12:00.070Z,17.41
2019-03-23T10:14:31.751Z,17.02
2019-03-23T10:17:02.196Z,17.11
2019-03-23T10:19:32.716Z,17.31
2019-03-23T10:22:06.273Z,17.31
2019-03-23T10:24:36.824Z,17.30
2019-03-23T10:27:07.347Z,17.26
2019-03-23T10:29:38.023Z,17.42
2019-03-23T10:32:08.583Z,17.46
2019-03-23T10:34:39.226Z,17.69
2019-03-23T10:37:09.619Z,17.78
2019-03-23T10:39:41.151Z,17.82
2019-03-23T10:42:11.679Z,18.05
2019-03-23T10:44:42.222Z,18.38
2019-03-23T10:47:12.725Z,18.02
2019-03-23T10:49:43.164Z,17.91
2019-03-23T10:52:13.637Z,18.06
2019-03-23T10:54:44.169Z,17.78
2019-03-23T10:57:14.710Z,17.78
2019-03-23T10:59:45.096Z,17.94
2019-03-23T11:02:15.561Z,18.37
2019-03-23T11:04:46.121Z,18.78
2019-03-23T11:07:16.626Z,18.89
2019-03-23T11:09:47.152Z,18.57
2019-03-23T11:12:17.800Z,18.34
2019-03-23T11:14:48.322Z,18.91
2019-03-23T11:17:18.855Z,18.87
2019-03-23T11:19:49.334Z,18.78
2019-03-23T11:22:19.848Z,19.14
2019-03-23T11:24:50.313Z,19.18
2019-03-23T11:27:20.825Z,19.23
2019-03-23T11:29:51.272Z,19.30
2019-03-23T11:32:22.032Z,19.22
2019-03-23T11:34:52.695Z,18.90
2019-03-23T11:37:23.326Z,18.63
2019-03-23T11:39:53.904Z,18.43
2019-03-23T11:42:24.560Z,19.17
2019-03-23T11:44:55.149Z,19.54
2019-03-23T11:47:25.770Z,19.55
2019-03-23T11:49:56.313Z,19.32
2019-03-23T11:52:26.871Z,19.42
2019-03-23T11:54:57.389Z,19.21
2019-03-23T11:57:27.931Z,19.32
2019-03-23T11:59:58.463Z,19.34
2019-03-23T12:02:28.918Z,19.02
2019-03-23T12:04:59.521Z,19.19
2019-03-23T12:07:30.005Z,19.57
2019-03-23T12:10:00.603Z,19.57
2019-03-23T12:12:31.018Z,19.94
2019-03-23T12:15:01.560Z,19.70
2019-03-23T12:17:32.163Z,19.84
2019-03-23T12:20:02.801Z,19.34
2019-03-23T12:22:34.356Z,19.55
2019-03-23T12:25:05.685Z,19.50
2019-03-23T12:27:36.292Z,19.85
2019-03-23T12:30:07.868Z,20.36
2019-03-23T12:32:38.384Z,19.96
2019-03-23T12:35:09.188Z,20.16
2019-03-23T12:37:39.701Z,20.36
2019-03-23T12:40:11.062Z,20.11
2019-03-23T12:42:41.714Z,19.91
2019-03-23T12:45:12.782Z,20.20
2019-03-23T12:47:43.417Z,20.57
2019-03-23T12:50:16.620Z,21.08
2019-03-23T12:53:08.065Z,20.96
2019-03-23T12:55:38.572Z,21.01
2019-03-23T12:58:09.116Z,20.93
2019-03-23T13:00:39.789Z,20.88
2019-03-23T13:03:10.363Z,20.34
2019-03-23T13:05:40.794Z,20.68
2019-03-23T13:08:11.276Z,20.80
2019-03-23T13:10:41.887Z,21.22
2019-03-23T13:13:12.345Z,21.33
2019-03-23T13:15:42.862Z,20.37
2019-03-23T13:18:13.548Z,20.63
2019-03-23T13:20:44.007Z,20.60
2019-03-23T13:23:14.549Z,20.49
2019-03-23T13:25:45.065Z,20.80
2019-03-23T13:28:15.646Z,20.42
2019-03-23T13:30:46.043Z,20.41
2019-03-23T13:33:16.529Z,21.01
2019-03-23T13:35:47.075Z,21.05
2019-03-23T13:38:17.490Z,20.96
2019-03-23T13:40:48.026Z,20.83
2019-03-23T13:43:18.618Z,21.15
2019-03-23T13:45:49.189Z,21.28
2019-03-23T13:48:19.686Z,20.94
2019-03-23T13:50:50.134Z,20.86
2019-03-23T13:53:21.632Z,20.51
2019-03-23T13:55:52.072Z,21.33
2019-03-23T13:58:22.542Z,21.36
2019-03-23T14:00:53.070Z,21.58
2019-03-23T14:03:23.609Z,21.97
2019-03-23T14:05:54.233Z,21.44
2019-03-23T14:08:24.780Z,21.29
2019-03-23T14:10:55.808Z,21.36
2019-03-23T14:13:27.829Z,21.83
2019-03-23T14:15:58.375Z,21.22
2019-03-23T14:18:28.914Z,20.71
2019-03-23T14:20:59.431Z,21.07
2019-03-23T14:23:30.053Z,21.30
2019-03-23T14:26:00.537Z,20.33
2019-03-23T14:28:31.010Z,21.35
2019-03-23T14:31:01.488Z,21.90
2019-03-23T14:33:31.976Z,22.10
2019-03-23T14:36:02.654Z,21.38
2019-03-23T14:38:33.276Z,21.42
2019-03-23T14:41:04.966Z,20.75
2019-03-23T14:43:35.397Z,20.96
2019-03-23T14:46:05.981Z,20.78
2019-03-23T14:48:36.442Z,20.64
2019-03-23T14:51:06.982Z,21.02
2019-03-23T14:53:37.627Z,20.78
2019-03-23T14:56:08.231Z,21.01
2019-03-23T14:58:38.753Z,21.26
2019-03-23T15:01:09.909Z,21.23
2019-03-23T15:03:40.360Z,21.44
2019-03-23T15:06:10.857Z,21.21
2019-03-23T15:08:41.357Z,21.03
2019-03-23T15:11:11.949Z,21.13
2019-03-23T15:13:42.458Z,21.48
2019-03-23T15:16:12.861Z,21.77
2019-03-23T15:18:43.382Z,21.12
2019-03-23T15:21:13.994Z,20.67
2019-03-23T15:23:44.541Z,20.82
2019-03-23T15:26:15.077Z,21.15
2019-03-23T15:28:45.548Z,21.32
2019-03-23T15:31:16.014Z,20.91
2019-03-23T15:33:46.494Z,20.98
2019-03-23T15:36:16.953Z,20.81
2019-03-23T15:38:47.402Z,21.01
2019-03-23T15:41:17.924Z,21.23
2019-03-23T15:43:49.265Z,21.56
2019-03-23T15:46:19.880Z,21.70
2019-03-23T15:48:50.365Z,21.65
2019-03-23T15:51:21.021Z,21.34
2019-03-23T15:53:51.468Z,21.06
2019-03-23T15:56:21.921Z,20.84
2019-03-23T15:58:52.507Z,21.02
2019-03-23T16:01:23.346Z,21.10
2019-03-23T16:03:53.840Z,20.96
2019-03-23T16:06:24.224Z,21.14
2019-03-23T16:08:54.680Z,21.18
2019-03-23T16:11:25.745Z,20.72
2019-03-23T16:13:56.303Z,20.70
2019-03-23T16:16:26.740Z,20.66
2019-03-23T16:18:57.133Z,20.74
2019-03-23T16:21:28.062Z,20.72
2019-03-23T16:24:00.151Z,20.66
2019-03-23T16:26:32.691Z,20.57
2019-03-23T16:29:03.483Z,20.45
2019-03-23T16:31:34.004Z,20.58
2019-03-23T16:34:04.542Z,20.75
2019-03-23T16:36:35.016Z,20.76
2019-03-23T16:39:07.209Z,20.74
2019-03-23T16:41:37.834Z,20.55
2019-03-23T16:44:08.390Z,20.27
2019-03-23T16:46:39.041Z,20.00
2019-03-23T16:49:09.631Z,19.61
2019-03-23T16:51:40.131Z,19.75
2019-03-23T16:54:10.641Z,19.83
2019-03-23T16:56:41.259Z,19.83
2019-03-23T16:59:11.795Z,19.44
2019-03-23T17:01:42.552Z,19.08
2019-03-23T17:04:13.075Z,18.87
2019-03-23T17:06:46.549Z,18.68
2019-03-23T17:09:18.314Z,18.35
2019-03-23T17:12:07.663Z,18.29
2019-03-23T17:14:38.102Z,18.21
2019-03-23T17:17:08.632Z,18.22
2019-03-23T17:19:39.215Z,18.12
2019-03-23T17:22:09.891Z,17.91
2019-03-23T17:24:40.571Z,17.77
2019-03-23T17:27:11.582Z,17.53
2019-03-23T17:29:42.024Z,17.33
2019-03-23T17:32:12.641Z,17.43
2019-03-23T17:34:43.103Z,17.46
2019-03-23T17:37:13.626Z,17.44
2019-03-23T17:39:44.156Z,17.36
2019-03-23T17:42:14.599Z,17.18
2019-03-23T17:44:46.206Z,17.01
2019-03-23T17:47:16.917Z,16.94
2019-03-23T17:49:47.435Z,17.01
2019-03-23T17:52:17.895Z,17.08
2019-03-23T17:54:48.435Z,17.08
2019-03-23T17:57:19.228Z,17.06
2019-03-23T17:59:49.662Z,16.97
2019-03-23T18:02:20.275Z,16.76
2019-03-23T18:04:51.831Z,16.56
2019-03-23T18:07:22.376Z,16.33
2019-03-23T18:09:52.952Z,16.41
2019-03-23T18:12:24.099Z,16.37
2019-03-23T18:14:55.713Z,16.34
2019-03-23T18:17:26.296Z,16.27
2019-03-23T18:19:56.801Z,16.17
2019-03-23T18:22:27.296Z,16.13
2019-03-23T18:24:57.857Z,15.97
2019-03-23T18:27:28.388Z,15.72
2019-03-23T18:29:59.120Z,15.65
2019-03-23T18:32:30.497Z,15.70
2019-03-23T18:35:03.099Z,15.69
2019-03-23T18:37:33.141Z,15.69
2019-03-23T18:40:05.292Z,15.62
2019-03-23T18:42:35.959Z,15.51
2019-03-23T18:45:07.019Z,15.66
2019-03-23T18:47:37.526Z,15.36
2019-03-23T18:50:08.179Z,15.27
2019-03-23T18:52:40.031Z,15.05
2019-03-23T18:55:10.764Z,14.91
2019-03-23T18:57:41.247Z,14.84
2019-03-23T19:00:14.259Z,14.83
2019-03-23T19:02:44.850Z,14.74
2019-03-23T19:05:15.339Z,14.68
2019-03-23T19:07:45.959Z,14.54
2019-03-23T19:10:16.715Z,14.57
2019-03-23T19:12:47.194Z,14.46
2019-03-23T19:15:17.783Z,14.25
2019-03-23T19:17:48.244Z,14.20
2019-03-23T19:20:18.771Z,14.05
2019-03-23T19:22:49.284Z,14.02
2019-03-23T19:25:19.816Z,14.01
2019-03-23T19:27:50.305Z,13.89
2019-03-23T19:30:21.086Z,13.85
2019-03-23T19:32:51.654Z,13.51
2019-03-23T19:35:22.278Z,13.22
2019-03-23T19:37:53.681Z,13.16
2019-03-23T19:40:26.114Z,13.39
2019-03-23T19:42:59.583Z,13.29
2019-03-23T19:45:30.665Z,13.36
2019-03-23T19:48:01.308Z,13.49
2019-03-23T19:50:32.015Z,13.44
2019-03-23T19:53:02.544Z,13.44
2019-03-23T19:55:33.019Z,13.22
2019-03-23T19:58:03.449Z,13.41
2019-03-23T20:00:34.006Z,13.38
2019-03-23T20:03:05.834Z,13.57
2019-03-23T20:05:36.398Z,13.28
2019-03-23T20:08:06.983Z,12.91
2019-03-23T20:10:37.408Z,12.49
2019-03-23T20:13:08.300Z,12.48
2019-03-23T20:15:38.764Z,12.60
2019-03-23T20:18:09.261Z,12.82
2019-03-23T20:20:39.885Z,12.58
2019-03-23T20:23:10.595Z,12.70
2019-03-23T20:25:41.217Z,13.20
2019-03-23T20:28:11.822Z,12.64
2019-03-23T20:30:42.290Z,12.23
2019-03-23T20:33:19.258Z,12.10
2019-03-23T20:35:45.968Z,11.91
2019-03-23T20:38:16.534Z,12.08
2019-03-23T20:40:47.106Z,12.09
2019-03-23T20:43:17.655Z,11.96
2019-03-23T20:45:48.706Z,11.87
2019-03-23T20:48:20.665Z,11.91
2019-03-23T20:50:51.391Z,12.03
2019-03-23T20:53:22.382Z,12.01
2019-03-23T20:55:52.913Z,11.71
2019-03-23T20:58:23.858Z,11.79
2019-03-23T21:00:54.329Z,11.52
2019-03-23T21:03:24.778Z,11.45
2019-03-23T21:05:55.343Z,11.51
2019-03-23T21:08:25.798Z,11.91
2019-03-23T21:10:56.429Z,12.23
2019-03-23T21:13:27.514Z,11.84
2019-03-23T21:15:58.076Z,11.55
2019-03-23T21:18:28.559Z,11.19
2019-03-23T21:20:59.087Z,10.99
2019-03-23T21:23:29.627Z,10.91
2019-03-23T21:26:00.082Z,10.84
2019-03-23T21:28:30.530Z,10.87
2019-03-23T21:31:00.980Z,11.08
2019-03-23T21:33:32.179Z,11.20
2019-03-23T21:36:03.664Z,10.98
2019-03-23T21:38:34.329Z,11.08
2019-03-23T21:41:04.876Z,11.28
2019-03-23T21:43:35.334Z,11.05
2019-03-23T21:46:05.991Z,11.02
2019-03-23T21:48:36.457Z,11.06
2019-03-23T21:51:06.990Z,11.21
2019-03-23T21:53:38.825Z,11.17
2019-03-23T21:56:10.325Z,11.32
2019-03-23T21:58:40.777Z,11.46
2019-03-23T22:01:12.355Z,11.53
2019-03-23T22:03:42.916Z,11.46
2019-03-23T22:06:13.847Z,11.37
2019-03-23T22:08:45.241Z,11.14
2019-03-23T22:11:15.696Z,10.45
2019-03-23T22:13:46.673Z,10.75
2019-03-23T22:16:17.142Z,10.91
2019-03-23T22:18:47.743Z,10.98
2019-03-23T22:21:18.258Z,10.50
2019-03-23T22:23:48.716Z,10.43
2019-03-23T22:26:19.232Z,10.84
2019-03-23T22:28:49.672Z,10.72
2019-03-23T22:31:20.182Z,10.65
2019-03-23T22:33:50.719Z,10.64
2019-03-23T22:36:21.152Z,10.69
2019-03-23T22:38:51.725Z,10.59
2019-03-23T22:41:22.281Z,10.39
2019-03-23T22:43:52.742Z,10.45
2019-03-23T22:46:23.253Z,10.56
2019-03-23T22:48:53.689Z,10.46
2019-03-23T22:51:24.219Z,10.67
2019-03-23T22:53:55.471Z,10.41
2019-03-23T22:56:26.060Z,10.05
2019-03-23T22:58:56.522Z,9.86
2019-03-23T23:01:27.055Z,10.07
2019-03-23T23:03:57.638Z,10.06
2019-03-23T23:06:28.221Z,10.58
2019-03-23T23:08:58.623Z,11.78
2019-03-23T23:11:29.069Z,12.17
2019-03-23T23:14:01.255Z,12.33
2019-03-23T23:16:32.232Z,12.38
2019-03-23T23:19:02.705Z,12.44
2019-03-23T23:21:33.153Z,12.25
2019-03-23T23:24:03.828Z,10.96
2019-03-23T23:26:34.313Z,10.05
2019-03-23T23:29:04.814Z,9.60
2019-03-23T23:31:35.365Z,9.44
2019-03-23T23:34:06.123Z,9.32
2019-03-23T23:36:36.673Z,9.31
2019-03-23T23:39:08.321Z,9.23
2019-03-23T23:41:38.874Z,9.21
2019-03-23T23:44:09.302Z,9.14
2019-03-23T23:46:40.856Z,9.09
2019-03-23T23:49:11.355Z,9.07
2019-03-23T23:51:49.782Z,9.11
2019-03-23T23:54:14.016Z,9.02
2019-03-23T23:56:44.611Z,8.78
2019-03-23T23:59:16.155Z,8.66
